createdAt,value
2022-10-19T00:02:27.848Z,26.90
2022-10-19T00:05:59.866Z,27.60
2022-10-19T00:09:31.522Z,26.23
2022-10-19T00:13:03.722Z,22.67
2022-10-19T00:16:38.135Z,24.10
2022-10-19T00:20:10.906Z,25.97
2022-10-19T00:23:43.712Z,22.87
2022-10-19T00:27:16.497Z,20.70
2022-10-19T00:34:21.041Z,30.47
2022-10-19T00:37:52.696Z,22.37
2022-10-19T00:41:28.410Z,27.00
2022-10-19T00:45:05.849Z,22.42
2022-10-19T00:48:37.795Z,19.37
2022-10-19T00:52:14.272Z,22.17
2022-10-19T00:55:46.814Z,22.77
2022-10-19T00:59:21.422Z,20.40
2022-10-19T01:02:53.578Z,19.03
2022-10-19T01:06:26.034Z,18.70
2022-10-19T01:09:58.138Z,17.75
2022-10-19T01:13:37.647Z,19.15
2022-10-19T01:17:33.601Z,22.80
2022-10-19T01:21:26.215Z,18.67
2022-10-19T01:25:20.736Z,18.27
2022-10-19T01:29:17.471Z,17.20
2022-10-19T01:33:01.779Z,19.17
2022-10-19T01:36:42.141Z,19.58
2022-10-19T01:40:24.124Z,18.27
2022-10-19T01:44:01.806Z,20.93
2022-10-19T01:47:38.650Z,19.93
2022-10-19T01:51:19.297Z,15.38
2022-10-19T01:54:55.389Z,18.40
2022-10-19T01:58:32.078Z,18.10
2022-10-19T02:02:05.778Z,24.40
2022-10-19T02:05:38.869Z,21.63
2022-10-19T02:09:17.908Z,25.08
2022-10-19T02:12:51.208Z,20.77
2022-10-19T02:16:32.930Z,14.37
2022-10-19T02:20:05.644Z,22.15
2022-10-19T02:23:37.915Z,13.73
2022-10-19T02:27:09.704Z,24.83
2022-10-19T02:30:42.596Z,29.10
2022-10-19T02:34:14.377Z,29.38
2022-10-19T02:37:46.304Z,26.75
2022-10-19T02:41:34.292Z,18.90
2022-10-19T02:45:10.507Z,15.18
2022-10-19T02:48:43.432Z,17.60
2022-10-19T02:52:15.521Z,13.63
2022-10-19T02:55:49.066Z,13.47
2022-10-19T02:59:21.165Z,14.20
2022-10-19T03:02:52.889Z,12.70
2022-10-19T03:06:24.659Z,14.43
2022-10-19T03:09:56.409Z,17.13
2022-10-19T03:13:28.303Z,14.55
2022-10-19T03:17:00.210Z,8.40
2022-10-19T03:20:32.346Z,11.93
2022-10-19T03:24:04.331Z,9.73
2022-10-19T03:27:36.583Z,13.80
2022-10-19T03:31:08.573Z,9.60
2022-10-19T03:34:40.535Z,12.50
2022-10-19T03:38:12.185Z,9.23
2022-10-19T03:41:44.903Z,9.90
2022-10-19T03:45:16.579Z,10.30
2022-10-19T03:48:49.570Z,5.80
2022-10-19T03:52:21.258Z,7.73
2022-10-19T03:55:53.164Z,10.05
2022-10-19T03:59:24.864Z,7.90
2022-10-19T04:02:56.918Z,9.40
2022-10-19T04:06:33.983Z,10.03
2022-10-19T04:10:13.495Z,9.15
2022-10-19T04:13:48.711Z,11.52
2022-10-19T04:17:20.605Z,7.13
2022-10-19T04:21:04.678Z,10.50
2022-10-19T04:24:36.523Z,11.63
2022-10-19T04:28:08.094Z,8.75
2022-10-19T04:31:40.807Z,9.73
2022-10-19T04:35:12.532Z,9.17
2022-10-19T04:38:44.417Z,9.73
2022-10-19T04:42:16.274Z,7.80
2022-10-19T04:45:48.129Z,6.33
2022-10-19T04:49:20.455Z,10.23
2022-10-19T04:52:52.414Z,9.63
2022-10-19T04:56:26.377Z,8.50
2022-10-19T04:59:58.207Z,8.80
2022-10-19T05:03:29.830Z,6.07
2022-10-19T05:07:01.646Z,7.68
2022-10-19T05:10:33.488Z,7.47
2022-10-19T05:14:05.330Z,5.70
2022-10-19T05:17:37.111Z,10.77
2022-10-19T05:21:14.102Z,7.50
2022-10-19T05:24:45.671Z,9.43
2022-10-19T05:28:17.585Z,8.87
2022-10-19T05:31:49.166Z,6.70
2022-10-19T05:35:22.692Z,12.10
2022-10-19T05:38:57.041Z,10.15
2022-10-19T05:42:29.070Z,6.87
2022-10-19T05:46:09.175Z,7.65
2022-10-19T05:49:41.057Z,7.40
2022-10-19T05:53:12.670Z,11.43
2022-10-19T05:56:44.723Z,8.07
2022-10-19T06:00:16.563Z,8.75
2022-10-19T06:03:52.143Z,5.63
2022-10-19T06:07:23.759Z,8.43
2022-10-19T06:11:09.007Z,6.00
2022-10-19T06:14:40.862Z,6.55
2022-10-19T06:18:13.319Z,7.70
2022-10-19T06:21:45.916Z,4.43
2022-10-19T06:25:20.340Z,8.10
2022-10-19T06:28:55.957Z,8.07
2022-10-19T06:32:28.586Z,4.63
2022-10-19T06:36:15.254Z,2.57
2022-10-19T06:39:47.338Z,5.20
2022-10-19T06:43:18.991Z,5.38
2022-10-19T06:46:51.117Z,8.57
2022-10-19T06:50:23.049Z,2.93
2022-10-19T06:53:57.105Z,2.72
2022-10-19T06:57:29.299Z,7.88
2022-10-19T07:01:01.548Z,5.32
2022-10-19T07:04:33.308Z,3.80
2022-10-19T07:08:05.289Z,5.18
2022-10-19T07:11:37.212Z,4.28
2022-10-19T07:15:09.779Z,6.05
2022-10-19T07:18:41.922Z,3.53
2022-10-19T07:22:19.154Z,7.95
2022-10-19T07:25:55.441Z,3.00
2022-10-19T07:29:27.404Z,5.43
2022-10-19T07:32:59.057Z,8.37
2022-10-19T07:36:33.439Z,6.97
2022-10-19T07:40:05.407Z,4.32
2022-10-19T07:43:37.536Z,8.80
2022-10-19T07:47:09.137Z,7.27
2022-10-19T07:50:41.040Z,6.93
2022-10-19T07:54:13.611Z,6.47
2022-10-19T07:57:49.649Z,10.57
2022-10-19T08:01:24.270Z,4.07
2022-10-19T08:05:01.069Z,5.25
2022-10-19T08:08:35.731Z,6.57
2022-10-19T08:12:11.182Z,6.17
2022-10-19T08:15:48.040Z,7.63
2022-10-19T08:19:19.864Z,9.15
2022-10-19T08:22:56.379Z,10.20
2022-10-19T08:26:33.048Z,10.63
2022-10-19T08:30:05.119Z,7.80
2022-10-19T08:33:37.083Z,10.27
2022-10-19T08:37:19.822Z,5.22
2022-10-19T08:41:08.622Z,7.40
2022-10-19T08:44:43.180Z,3.87
2022-10-19T08:48:37.192Z,4.15
2022-10-19T08:52:35.780Z,2.95
2022-10-19T08:56:51.026Z,2.17
2022-10-19T09:00:41.280Z,3.47
2022-10-19T09:04:31.050Z,3.70
2022-10-19T09:08:02.824Z,3.72
2022-10-19T09:11:40.429Z,6.57
2022-10-19T09:15:26.403Z,5.80
2022-10-19T09:18:58.516Z,6.40
2022-10-19T09:22:35.000Z,7.22
2022-10-19T09:26:14.634Z,4.27
2022-10-19T09:29:54.062Z,6.70
2022-10-19T09:33:37.224Z,3.90
2022-10-19T09:37:09.353Z,3.15
2022-10-19T09:40:42.453Z,3.60
2022-10-19T09:44:14.177Z,3.83
2022-10-19T09:47:48.378Z,6.65
2022-10-19T09:51:21.270Z,6.93
2022-10-19T09:55:03.279Z,5.33
2022-10-19T09:58:35.749Z,3.53
2022-10-19T10:02:31.663Z,3.60
2022-10-19T10:06:12.422Z,3.25
2022-10-19T10:09:44.959Z,6.50
2022-10-19T10:13:19.078Z,9.97
2022-10-19T10:16:58.260Z,4.85
2022-10-19T10:20:32.560Z,4.18
2022-10-19T10:24:10.977Z,4.03
2022-10-19T10:27:42.593Z,1.70
2022-10-19T10:31:15.052Z,1.88
2022-10-19T10:34:58.413Z,3.88
2022-10-19T10:38:36.894Z,1.70
2022-10-19T10:42:14.776Z,2.67
2022-10-19T10:45:51.418Z,2.95
2022-10-19T10:49:34.637Z,4.88
2022-10-19T10:53:39.761Z,4.47
2022-10-19T10:57:13.978Z,1.87
2022-10-19T11:00:48.239Z,1.95
2022-10-19T11:04:25.348Z,1.95
2022-10-19T11:08:13.075Z,2.50
2022-10-19T11:11:47.586Z,3.23
2022-10-19T11:23:17.057Z,5.53
2022-10-19T11:27:31.017Z,2.03
2022-10-19T11:31:22.395Z,3.33
2022-10-19T11:35:08.961Z,4.75
2022-10-19T11:38:55.934Z,3.87
2022-10-19T11:42:30.264Z,3.30
2022-10-19T11:46:09.402Z,2.88
2022-10-19T11:50:24.330Z,2.00
2022-10-19T11:54:14.457Z,2.33
2022-10-19T11:58:32.331Z,2.83
2022-10-19T12:02:26.829Z,2.80
2022-10-19T12:06:23.065Z,2.65
2022-10-19T12:10:08.000Z,5.32
2022-10-19T12:13:41.928Z,2.57
2022-10-19T12:17:31.218Z,3.08
2022-10-19T12:21:08.317Z,1.75
2022-10-19T12:24:40.186Z,2.58
2022-10-19T12:28:22.198Z,4.90
2022-10-19T12:31:55.459Z,3.83
2022-10-19T12:36:04.567Z,2.67
2022-10-19T12:39:50.019Z,2.53
2022-10-19T12:43:38.430Z,1.43
2022-10-19T12:47:15.632Z,2.33
2022-10-19T12:50:50.234Z,2.70
2022-10-19T12:54:28.194Z,1.83
2022-10-19T12:58:06.378Z,2.40
2022-10-19T13:01:38.203Z,2.60
2022-10-19T13:05:20.436Z,3.60
2022-10-19T13:09:05.281Z,2.33
2022-10-19T13:12:44.158Z,3.93
2022-10-19T13:16:36.223Z,1.75
2022-10-19T13:20:13.981Z,3.20
2022-10-19T13:23:46.672Z,1.30
2022-10-19T13:27:26.382Z,3.53
2022-10-19T13:31:05.879Z,2.13
2022-10-19T13:34:41.313Z,3.40
2022-10-19T13:38:15.917Z,3.90
2022-10-19T13:41:50.680Z,1.90
2022-10-19T13:45:24.525Z,2.53
2022-10-19T13:49:05.114Z,4.35
2022-10-19T13:52:37.249Z,5.40
2022-10-19T13:56:18.334Z,2.60
2022-10-19T14:00:11.157Z,2.03
2022-10-19T14:04:13.842Z,1.95
2022-10-19T14:08:08.828Z,0.95
2022-10-19T14:11:42.022Z,2.72
2022-10-19T14:15:24.290Z,1.27
2022-10-19T14:18:57.011Z,1.95
2022-10-19T14:22:33.557Z,2.75
2022-10-19T14:26:16.529Z,4.13
2022-10-19T14:29:51.574Z,3.00
2022-10-19T14:33:25.544Z,2.33
2022-10-19T14:36:59.863Z,2.95
2022-10-19T14:40:38.949Z,2.63
2022-10-19T14:44:43.112Z,2.03
2022-10-19T14:48:18.175Z,2.90
2022-10-19T14:51:58.236Z,2.05
2022-10-19T14:55:37.563Z,2.08
2022-10-19T15:00:09.814Z,2.63
2022-10-19T15:03:58.515Z,9.57
2022-10-19T15:07:37.074Z,2.30
2022-10-19T15:11:39.516Z,6.22
2022-10-19T15:15:19.376Z,2.83
2022-10-19T15:18:51.272Z,1.45
2022-10-19T15:22:32.521Z,2.23
2022-10-19T15:26:26.696Z,3.30
2022-10-19T15:30:18.094Z,2.30
2022-10-19T15:33:52.447Z,2.23
2022-10-19T15:41:04.993Z,4.55
2022-10-19T15:44:44.484Z,2.55
2022-10-19T15:48:24.478Z,3.10
2022-10-19T15:51:56.101Z,3.33
2022-10-19T15:55:27.955Z,3.75
2022-10-19T15:59:02.005Z,4.20
2022-10-19T16:02:34.026Z,4.53
2022-10-19T16:06:05.961Z,8.87
2022-10-19T16:09:37.761Z,10.45
2022-10-19T16:13:09.374Z,7.15
2022-10-19T16:16:42.001Z,6.37
2022-10-19T16:20:13.860Z,6.20
2022-10-19T16:23:45.762Z,6.18
2022-10-19T16:27:17.815Z,5.82
2022-10-19T16:30:56.194Z,6.33
2022-10-19T16:34:28.000Z,9.37
2022-10-19T16:37:59.867Z,5.82
2022-10-19T16:41:31.624Z,5.40
2022-10-19T16:45:03.879Z,6.47
2022-10-19T16:48:35.896Z,9.00
2022-10-19T16:52:07.732Z,12.18
2022-10-19T16:55:40.526Z,8.90
2022-10-19T16:59:15.147Z,11.17
2022-10-19T17:02:46.891Z,10.37
2022-10-19T17:06:19.808Z,12.40
2022-10-19T17:09:54.709Z,12.10
2022-10-19T17:13:26.787Z,10.10
2022-10-19T17:16:58.732Z,10.07
2022-10-19T17:20:32.813Z,9.85
2022-10-19T17:24:06.576Z,12.15
2022-10-19T17:27:38.377Z,11.60
2022-10-19T17:31:14.356Z,15.00
2022-10-19T17:34:46.105Z,16.50
2022-10-19T17:38:17.918Z,19.30
2022-10-19T17:41:50.991Z,18.33
2022-10-19T17:45:22.769Z,19.85
2022-10-19T17:48:54.858Z,15.45
2022-10-19T17:52:26.482Z,26.90
2022-10-19T17:56:03.670Z,30.57
2022-10-19T17:59:52.084Z,38.33
2022-10-19T18:03:26.575Z,25.85
2022-10-19T18:06:58.179Z,17.47
2022-10-19T18:10:30.064Z,13.40
2022-10-19T18:14:02.542Z,15.48
2022-10-19T18:17:34.586Z,36.17
2022-10-19T18:21:08.764Z,22.27
2022-10-19T18:24:40.605Z,17.75
2022-10-19T18:28:12.984Z,15.73
2022-10-19T18:31:49.133Z,21.85
2022-10-19T18:35:21.037Z,25.10
2022-10-19T18:38:55.297Z,25.55
2022-10-19T18:42:27.110Z,20.20
2022-10-19T18:46:00.517Z,20.97
2022-10-19T18:49:32.247Z,19.50
2022-10-19T18:53:04.058Z,20.30
2022-10-19T18:56:36.609Z,13.52
2022-10-19T19:00:09.152Z,16.10
2022-10-19T19:03:43.115Z,16.38
2022-10-19T19:07:15.124Z,20.85
2022-10-19T19:10:47.238Z,16.73
2022-10-19T19:14:22.102Z,19.47
2022-10-19T19:17:54.861Z,20.35
2022-10-19T19:21:29.808Z,20.42
2022-10-19T19:25:03.602Z,18.60
2022-10-19T19:28:41.789Z,14.60
2022-10-19T19:32:14.029Z,24.13
2022-10-19T19:35:48.325Z,30.73
2022-10-19T19:39:21.479Z,20.70
2022-10-19T19:42:53.300Z,17.63
2022-10-19T19:46:25.710Z,21.85
2022-10-19T19:49:57.469Z,15.20
2022-10-19T19:53:29.234Z,15.13
2022-10-19T19:57:01.124Z,20.85
2022-10-19T20:00:32.969Z,20.48
2022-10-19T20:04:06.403Z,26.33
2022-10-19T20:07:38.167Z,21.35
2022-10-19T20:11:12.985Z,37.67
2022-10-19T20:14:44.672Z,40.80
2022-10-19T20:18:16.437Z,31.83
2022-10-19T20:21:48.071Z,36.88
2022-10-19T20:25:19.968Z,30.88
2022-10-19T20:28:52.062Z,53.83
2022-10-19T20:32:28.719Z,51.95
2022-10-19T20:36:15.317Z,40.38
2022-10-19T20:39:48.244Z,28.08
2022-10-19T20:43:20.352Z,29.63
2022-10-19T20:46:52.293Z,20.17
2022-10-19T20:50:23.991Z,24.23
2022-10-19T20:53:57.511Z,18.50
2022-10-19T20:57:30.467Z,19.80
2022-10-19T21:01:07.431Z,15.98
2022-10-19T21:04:39.285Z,13.40
2022-10-19T21:08:11.090Z,33.90
2022-10-19T21:11:44.677Z,26.48
2022-10-19T21:15:16.584Z,28.95
2022-10-19T21:18:49.618Z,24.73
2022-10-19T21:22:21.452Z,29.50
2022-10-19T21:25:54.712Z,24.27
2022-10-19T21:29:27.292Z,21.30
2022-10-19T21:32:58.917Z,23.90
2022-10-19T21:36:30.720Z,19.13
2022-10-19T21:40:02.505Z,17.90
2022-10-19T21:43:35.431Z,21.23
2022-10-19T21:47:08.145Z,24.30
2022-10-19T21:50:39.908Z,21.20
2022-10-19T21:54:14.684Z,22.48
2022-10-19T21:57:46.865Z,20.63
2022-10-19T22:01:21.121Z,25.27
2022-10-19T22:04:52.916Z,20.77
2022-10-19T22:08:24.962Z,18.43
2022-10-19T22:11:56.768Z,16.98
2022-10-19T22:15:28.387Z,15.55
2022-10-19T22:19:00.170Z,12.80
2022-10-19T22:22:31.860Z,16.65
2022-10-19T22:26:13.621Z,20.13
2022-10-19T22:29:45.443Z,20.63
2022-10-19T22:33:20.357Z,16.63
2022-10-19T22:36:52.804Z,13.05
2022-10-19T22:40:25.017Z,15.77
2022-10-19T22:43:56.778Z,17.97
2022-10-19T22:47:28.725Z,19.83
2022-10-19T22:51:00.720Z,17.35
2022-10-19T22:54:32.575Z,21.67
2022-10-19T22:58:06.075Z,20.40
2022-10-19T23:01:38.310Z,15.85
2022-10-19T23:05:10.149Z,15.13
2022-10-19T23:08:43.311Z,17.87
2022-10-19T23:12:15.114Z,15.07
2022-10-19T23:15:47.086Z,15.43
2022-10-19T23:19:18.980Z,14.23
2022-10-19T23:22:51.292Z,14.85
2022-10-19T23:26:24.783Z,13.68
2022-10-19T23:29:56.924Z,14.13
2022-10-19T23:33:29.136Z,14.30
2022-10-19T23:37:01.094Z,13.75
2022-10-19T23:40:32.977Z,11.68
2022-10-19T23:44:05.247Z,11.63
2022-10-19T23:47:37.440Z,17.73
2022-10-19T23:51:12.579Z,13.88
2022-10-19T23:54:44.409Z,12.33
2022-10-19T23:58:16.234Z,14.63
